Time;durP1;ratioP1;P1;durP2;ratioP2;P2;SDS_P1;SDS_P2;PMS_P1;PMS_P2;Temp;Humidity;BMP_temperature;BMP_pressure;BME280_temperature;BME280_humidity;BME280_pressure;Samples;Min_cycle;Max_cycle;Signal;HPM_P1;HPM_P2
2024/02/20 00:00:44;;;;;;;32.60;18.25;;;;;;;10.48;86.69;100658.13;5098891;28;20040;-67
2024/02/20 00:03:09;;;;;;;33.15;19.20;;;;;;;10.52;86.13;100651.59;5098251;28;20032;-67
2024/02/20 00:05:34;;;;;;;34.78;19.08;;;;;;;10.55;85.80;100651.31;5099250;28;20040;-67
2024/02/20 00:08:02;;;;;;;33.80;18.45;;;;;;;10.55;85.27;100653.94;5097150;28;20028;-67
2024/02/20 00:10:29;;;;;;;33.60;17.75;;;;;;;10.57;85.45;100655.63;5099238;28;20043;-68
2024/02/20 00:12:57;;;;;;;29.05;17.83;;;;;;;10.61;85.51;100651.72;5097305;28;20330;-67
2024/02/20 00:15:23;;;;;;;30.77;16.95;;;;;;;10.63;85.20;100649.75;5092626;28;20024;-67
2024/02/20 00:17:49;;;;;;;33.47;18.90;;;;;;;10.67;84.74;100654.63;5098845;28;20330;-67
2024/02/20 00:20:15;;;;;;;30.90;16.48;;;;;;;10.69;85.21;100655.34;5097147;28;20067;-67
2024/02/20 00:22:40;;;;;;;31.75;17.83;;;;;;;10.70;84.88;100646.41;5099533;28;20047;-67
2024/02/20 00:25:07;;;;;;;31.80;17.70;;;;;;;10.71;84.53;100647.25;5097909;28;20233;-67
2024/02/20 00:27:33;;;;;;;32.78;17.95;;;;;;;10.64;84.69;100651.44;5099166;28;20035;-67
2024/02/20 00:29:58;;;;;;;29.25;17.83;;;;;;;10.66;84.76;100647.66;5093602;28;20234;-67
2024/02/20 00:32:24;;;;;;;31.80;18.35;;;;;;;10.67;84.46;100651.16;5099146;28;20081;-67
2024/02/20 00:34:49;;;;;;;29.58;16.27;;;;;;;10.69;84.96;100652.69;5099276;28;20048;-67
2024/02/20 00:37:15;;;;;;;31.80;17.27;;;;;;;10.66;84.64;100637.06;5099108;28;20090;-67
2024/02/20 00:39:41;;;;;;;35.42;17.70;;;;;;;10.67;84.28;100643.22;5100213;28;20028;-67
2024/02/20 00:42:07;;;;;;;25.83;14.77;;;;;;;10.69;83.38;100644.75;5098997;28;20055;-67
2024/02/20 00:44:33;;;;;;;31.40;16.50;;;;;;;10.69;83.53;100646.56;5099276;28;20225;-67
2024/02/20 00:46:58;;;;;;;34.33;17.27;;;;;;;10.69;84.49;100638.59;5098562;28;20042;-67
2024/02/20 00:49:24;;;;;;;32.55;17.77;;;;;;;10.70;84.45;100633.16;5097418;28;20099;-67
2024/02/20 00:51:50;;;;;;;30.40;16.95;;;;;;;10.71;84.17;100637.50;5091727;28;20355;-67
2024/02/20 00:54:15;;;;;;;31.88;16.58;;;;;;;10.65;83.88;100635.41;5099213;28;20044;-67
2024/02/20 00:56:41;;;;;;;31.20;17.38;;;;;;;10.61;84.16;100636.66;5096788;28;20043;-67
2024/02/20 00:59:07;;;;;;;31.98;18.10;;;;;;;10.63;83.70;100628.56;5099359;28;20042;-67
2024/02/20 01:01:33;;;;;;;31.95;17.38;;;;;;;10.62;84.14;100624.25;5088535;28;20050;-67
2024/02/20 01:03:58;;;;;;;35.03;18.10;;;;;;;10.61;84.73;100623.41;5099325;28;20052;-67
2024/02/20 01:06:24;;;;;;;38.03;20.52;;;;;;;10.58;85.36;100625.50;5098422;28;20044;-67
2024/02/20 01:08:49;;;;;;;31.35;18.73;;;;;;;10.62;85.07;100613.66;5099569;28;20031;-67
2024/02/20 01:11:15;;;;;;;39.47;20.40;;;;;;;10.62;84.62;100611.00;5097719;28;20043;-67
2024/02/20 01:13:41;;;;;;;45.95;22.83;;;;;;;10.59;85.30;100619.25;5099498;28;20047;-67
2024/02/20 01:16:06;;;;;;;38.10;18.85;;;;;;;10.52;85.79;100614.50;5092458;28;20315;-66
2024/02/20 01:18:34;;;;;;;33.47;19.08;;;;;;;10.48;85.88;100605.19;5097343;28;20062;-67
2024/02/20 01:21:00;;;;;;;33.50;18.77;;;;;;;10.49;86.38;100608.66;5098424;28;20032;-67
2024/02/20 01:23:25;;;;;;;42.17;20.70;;;;;;;10.55;85.30;100610.75;5097739;28;20103;-67
2024/02/20 01:25:51;;;;;;;45.92;21.80;;;;;;;10.60;86.02;100608.50;5097480;28;20032;-67
2024/02/20 01:28:17;;;;;;;34.97;19.15;;;;;;;10.61;85.34;100604.03;5090873;28;20342;-68
2024/02/20 01:30:44;;;;;;;36.63;18.88;;;;;;;10.51;86.08;100607.53;5099391;28;20221;-66
2024/02/20 01:33:09;;;;;;;33.30;17.83;;;;;;;10.47;86.38;100606.16;5097373;28;20069;-67
2024/02/20 01:35:35;;;;;;;31.63;18.17;;;;;;;10.53;85.71;100594.16;5099508;28;20264;-67
2024/02/20 01:38:00;;;;;;;32.90;18.23;;;;;;;10.59;85.85;100593.59;5096982;28;20048;-67
2024/02/20 01:40:26;;;;;;;33.20;18.90;;;;;;;10.59;85.67;100595.41;5098084;28;20047;-67
2024/02/20 01:42:56;;;;;;;36.88;18.38;;;;;;;10.37;87.16;100594.69;5098279;28;20059;-67
2024/02/20 01:45:23;;;;;;;30.40;17.50;;;;;;;10.34;87.38;100597.63;5098675;28;20283;-68
2024/02/20 01:47:49;;;;;;;34.28;18.45;;;;;;;10.37;87.14;100591.22;5097671;28;20040;-67
2024/02/20 01:50:15;;;;;;;35.28;18.75;;;;;;;10.40;87.36;100591.81;5098151;28;20337;-67
2024/02/20 01:52:41;;;;;;;39.63;19.63;;;;;;;10.38;86.83;100585.78;5091607;28;20273;-67
2024/02/20 01:55:07;;;;;;;47.80;21.42;;;;;;;10.33;86.57;100582.72;5098000;28;20064;-67
2024/02/20 01:57:33;;;;;;;48.70;21.65;;;;;;;10.23;87.40;100584.53;5097881;28;20040;-67
2024/02/20 01:59:59;;;;;;;48.78;22.48;;;;;;;10.30;87.18;100582.16;5097576;28;20047;-68
2024/02/20 02:02:24;;;;;;;53.13;24.02;;;;;;;10.38;87.26;100579.66;5098073;28;20044;-67
2024/02/20 02:04:50;;;;;;;58.83;25.70;;;;;;;10.42;86.68;100571.31;5098237;28;20103;-67
2024/02/20 02:07:16;;;;;;;63.88;27.20;;;;;;;10.47;86.53;100578.84;5098334;28;20077;-67
2024/02/20 02:09:41;;;;;;;30.35;16.75;;;;;;;10.50;85.98;100575.91;5092548;28;20080;-67
2024/02/20 02:12:07;;;;;;;32.85;16.08;;;;;;;10.47;86.30;100578.84;5099158;28;20314;-67
2024/02/20 02:14:32;;;;;;;33.65;17.67;;;;;;;10.46;85.34;100585.94;5096983;28;20032;-66
2024/02/20 02:16:58;;;;;;;34.30;18.63;;;;;;;10.44;86.13;100577.31;5097744;28;20040;-68
2024/02/20 02:19:23;;;;;;;36.15;18.15;;;;;;;10.46;86.45;100583.28;5091083;28;20036;-67
2024/02/20 02:21:49;;;;;;;31.48;17.48;;;;;;;10.50;86.50;100578.56;5096766;28;20044;-67
2024/02/20 02:24:14;;;;;;;33.47;17.13;;;;;;;10.52;86.00;100582.72;5096838;28;20028;-67
2024/02/20 02:26:40;;;;;;;56.95;23.83;;;;;;;10.56;85.93;100575.34;5096486;28;20032;-67
2024/02/20 02:29:05;;;;;;;31.92;16.60;;;;;;;10.61;85.24;100577.56;5097181;28;20028;-67
2024/02/20 02:31:31;;;;;;;29.30;16.25;;;;;;;10.65;84.78;100576.31;5096607;28;20468;-67
2024/02/20 02:33:57;;;;;;;34.53;16.05;;;;;;;10.67;85.01;100577.81;5097705;28;20024;-67
2024/02/20 02:36:24;;;;;;;29.23;15.13;;;;;;;10.70;84.55;100579.34;5096879;28;20158;-67
2024/02/20 02:38:51;;;;;;;29.58;16.10;;;;;;;10.69;84.78;100577.69;5097750;28;20211;-67
2024/02/20 02:41:17;;;;;;;31.70;16.45;;;;;;;10.71;85.03;100583.69;5097017;28;20036;-67
2024/02/20 02:43:42;;;;;;;31.55;15.80;;;;;;;10.71;85.09;100581.88;5101027;28;20267;-67
2024/02/20 02:46:10;;;;;;;26.25;15.18;;;;;;;10.69;85.65;100582.97;5095017;28;20031;-66
2024/02/20 02:48:36;;;;;;;28.58;15.98;;;;;;;10.59;85.13;100585.66;5101909;28;20307;-67
2024/02/20 02:51:01;;;;;;;29.73;16.50;;;;;;;10.58;85.45;100589.28;5100492;28;20183;-67
2024/02/20 02:53:27;;;;;;;30.90;16.58;;;;;;;10.27;86.59;100583.28;5101893;28;20043;-67
2024/02/20 02:55:52;;;;;;;28.52;15.93;;;;;;;10.30;86.74;100579.50;5100299;28;20329;-67
2024/02/20 02:58:17;;;;;;;33.08;16.48;;;;;;;10.32;86.74;100581.03;5100766;28;20028;-67
2024/02/20 03:00:43;;;;;;;32.63;16.40;;;;;;;10.29;87.47;100591.91;5100135;28;20040;-67
2024/02/20 03:03:08;;;;;;;27.58;15.90;;;;;;;10.35;87.49;100582.56;5100418;28;20220;-67
2024/02/20 03:05:37;;;;;;;29.48;15.85;;;;;;;10.30;87.10;100588.28;5101508;28;20165;-67
2024/02/20 03:08:03;;;;;;;32.95;16.70;;;;;;;10.21;87.71;100582.03;5101202;28;20059;-67
2024/02/20 03:10:29;;;;;;;31.77;17.40;;;;;;;10.03;88.51;100582.81;5101141;28;20035;-67
2024/02/20 03:12:55;;;;;;;23.92;11.40;;;;;;;9.73;87.28;100589.03;5100366;28;20326;-67
2024/02/20 03:15:21;;;;;;;25.48;12.90;;;;;;;9.29;90.17;100584.00;5101552;28;20039;-68
2024/02/20 03:17:47;;;;;;;17.75;11.65;;;;;;;9.05;91.06;100586.13;5100652;28;20073;-67
2024/02/20 03:20:15;;;;;;;18.50;10.65;;;;;;;8.79;91.72;100590.16;5093992;28;20102;-67
2024/02/20 03:22:45;;;;;;;15.50;10.73;;;;;;;8.58;93.74;100590.16;5094397;28;20329;-67
2024/02/20 03:25:10;;;;;;;18.33;10.13;;;;;;;8.38;95.43;100591.00;5087062;28;20077;-67
2024/02/20 03:27:36;;;;;;;17.27;9.65;;;;;;;8.34;96.05;100592.22;5089373;28;20040;-67
2024/02/20 03:30:04;;;;;;;15.10;9.63;;;;;;;8.21;96.82;100593.16;5100911;28;20202;-67
2024/02/20 03:32:29;;;;;;;17.52;9.82;;;;;;;8.41;95.76;100586.28;5099470;28;20032;-66
2024/02/20 03:34:55;;;;;;;16.15;9.52;;;;;;;8.22;96.72;100589.56;5100542;28;20348;-67
2024/02/20 03:37:20;;;;;;;14.82;8.98;;;;;;;8.12;97.48;100590.44;5091808;28;20055;-66
2024/02/20 03:39:45;;;;;;;15.32;9.90;;;;;;;8.10;98.41;100597.66;5101332;28;20046;-66
2024/02/20 03:42:11;;;;;;;17.88;9.10;;;;;;;8.12;98.42;100595.72;5100533;28;20218;-66
2024/02/20 03:44:39;;;;;;;17.23;9.30;;;;;;;8.12;99.03;100591.28;5100147;28;20039;-67
2024/02/20 03:47:05;;;;;;;16.00;9.18;;;;;;;8.11;99.22;100583.50;5099794;28;20051;-67
2024/02/20 03:49:31;;;;;;;14.52;9.13;;;;;;;8.16;98.66;100599.78;5099677;28;20375;-66
2024/02/20 03:51:56;;;;;;;16.33;8.73;;;;;;;8.13;99.25;100584.19;5099334;28;20024;-66
2024/02/20 03:54:22;;;;;;;18.02;9.25;;;;;;;8.09;98.76;100588.88;5098691;28;20494;-66
2024/02/20 03:56:47;;;;;;;13.93;9.05;;;;;;;8.02;99.98;100585.91;5098823;28;20058;-66
2024/02/20 03:59:13;;;;;;;15.25;9.20;;;;;;;7.94;100.00;100590.97;5099002;28;20037;-66
2024/02/20 04:01:39;;;;;;;13.88;8.88;;;;;;;7.96;100.00;100593.50;5100056;28;20028;-67
2024/02/20 04:04:05;;;;;;;14.68;8.45;;;;;;;7.76;100.00;100589.00;5099605;28;20427;-67
2024/02/20 04:06:31;;;;;;;16.70;9.07;;;;;;;7.80;100.00;100593.06;5100357;28;20155;-67
2024/02/20 04:08:57;;;;;;;14.35;8.82;;;;;;;7.85;100.00;100598.78;5096323;28;20539;-67
2024/02/20 04:11:22;;;;;;;16.02;8.85;;;;;;;7.58;100.00;100589.50;5099761;28;20031;-67
2024/02/20 04:13:47;;;;;;;13.98;8.63;;;;;;;7.37;100.00;100591.22;5098846;28;20052;-66
2024/02/20 04:16:13;;;;;;;16.92;9.13;;;;;;;7.50;100.00;100591.91;5099648;28;20047;-67
2024/02/20 04:18:39;;;;;;;17.35;9.82;;;;;;;7.52;100.00;100597.06;5099124;28;20047;-66
2024/02/20 04:21:05;;;;;;;18.20;9.73;;;;;;;7.66;100.00;100597.63;5099091;28;20241;-67
2024/02/20 04:23:31;;;;;;;16.15;9.50;;;;;;;7.60;100.00;100592.03;5098783;28;20036;-66
2024/02/20 04:25:56;;;;;;;17.65;10.13;;;;;;;7.71;100.00;100596.44;5098775;28;20238;-67
2024/02/20 04:28:21;;;;;;;14.77;8.40;;;;;;;7.75;100.00;100600.50;5099472;28;20051;-67
2024/02/20 04:30:47;;;;;;;12.90;8.88;;;;;;;7.81;100.00;100602.66;5098809;28;20044;-67
2024/02/20 04:33:12;;;;;;;14.13;8.10;;;;;;;7.87;100.00;100597.72;5099352;28;20039;-67
2024/02/20 04:35:38;;;;;;;14.10;8.45;;;;;;;7.87;100.00;100594.25;5099104;28;20333;-67
2024/02/20 04:38:04;;;;;;;14.60;8.82;;;;;;;7.98;100.00;100595.03;5078799;28;20028;-67
2024/02/20 04:40:29;;;;;;;14.52;8.75;;;;;;;8.03;100.00;100597.31;5072272;28;20231;-66
2024/02/20 04:42:55;;;;;;;16.27;8.65;;;;;;;7.96;100.00;100601.41;5079557;28;20033;-67
2024/02/20 04:45:20;;;;;;;17.92;9.65;;;;;;;8.10;100.00;100595.00;5078271;28;20234;-68
2024/02/20 04:47:46;;;;;;;53.70;12.90;;;;;;;7.97;99.84;100596.00;5079492;28;20224;-67
2024/02/20 04:50:12;;;;;;;18.02;9.60;;;;;;;7.97;100.00;100596.00;5078462;28;20039;-67
2024/02/20 04:52:38;;;;;;;14.07;9.20;;;;;;;7.96;100.00;100596.97;5078785;28;20033;-67
2024/02/20 04:55:03;;;;;;;16.48;9.10;;;;;;;8.04;99.74;100598.16;5077825;28;20576;-67
2024/02/20 04:57:29;;;;;;;15.52;8.82;;;;;;;7.98;100.00;100602.94;5078114;28;20234;-67
2024/02/20 04:59:55;;;;;;;15.27;8.43;;;;;;;7.91;100.00;100601.78;5079156;28;20325;-66
2024/02/20 05:02:20;;;;;;;13.13;8.18;;;;;;;7.99;100.00;100595.88;5077213;28;20313;-66
2024/02/20 05:04:46;;;;;;;13.90;8.20;;;;;;;7.94;99.71;100598.06;5078510;28;20365;-67
2024/02/20 05:07:12;;;;;;;15.77;8.15;;;;;;;7.94;99.95;100609.44;5076977;28;20238;-67
2024/02/20 05:09:37;;;;;;;15.93;8.23;;;;;;;7.88;100.00;100604.66;5078014;28;20094;-67
2024/02/20 05:12:03;;;;;;;16.55;9.55;;;;;;;7.84;100.00;100599.75;5077665;28;20048;-66
2024/02/20 05:14:29;;;;;;;14.68;9.38;;;;;;;7.69;100.00;100596.56;5078371;28;20037;-67
2024/02/20 05:16:54;;;;;;;14.65;9.02;;;;;;;7.79;100.00;100601.94;5077760;28;20199;-67
2024/02/20 05:19:20;;;;;;;14.73;9.27;;;;;;;7.81;100.00;100602.66;5077438;28;20300;-67
2024/02/20 05:21:45;;;;;;;14.13;8.43;;;;;;;7.87;100.00;100613.53;5077723;28;20045;-66
2024/02/20 05:24:11;;;;;;;17.05;9.48;;;;;;;7.87;100.00;100610.91;5074060;28;20028;-67
2024/02/20 05:26:36;;;;;;;16.25;9.88;;;;;;;7.99;100.00;100615.19;5061295;28;20048;-67
2024/02/20 05:29:01;;;;;;;16.95;9.50;;;;;;;8.11;100.00;100615.97;5073536;28;20025;-66
2024/02/20 05:31:29;;;;;;;18.08;9.23;;;;;;;8.07;100.00;100611.91;5077808;28;20257;-67
2024/02/20 05:33:58;;;;;;;16.90;10.05;;;;;;;8.03;100.00;100618.41;5078717;28;20085;-67
2024/02/20 05:36:31;;;;;;;18.17;10.60;;;;;;;8.11;100.00;100625.69;5084457;28;20051;-67
2024/02/20 05:39:01;;;;;;;20.20;10.95;;;;;;;8.25;99.35;100626.25;5098557;28;20321;-67
2024/02/20 05:41:28;;;;;;;19.08;10.93;;;;;;;8.18;99.63;100622.44;5097915;28;20044;-66
2024/02/20 05:43:57;;;;;;;18.38;12.00;;;;;;;8.30;98.94;100626.69;5098163;28;20027;-66
2024/02/20 05:46:25;;;;;;;15.02;9.57;;;;;;;8.39;98.44;100632.25;5098058;28;20036;-67
2024/02/20 05:48:51;;;;;;;19.08;9.93;;;;;;;8.44;97.93;100630.91;5097092;28;20352;-66
2024/02/20 05:51:16;;;;;;;22.60;9.90;;;;;;;8.45;98.15;100627.31;5092653;28;20271;-67
2024/02/20 05:53:42;;;;;;;16.75;10.60;;;;;;;8.22;98.41;100634.41;5097127;28;20040;-67
2024/02/20 05:56:09;;;;;;;19.70;10.77;;;;;;;8.23;99.38;100637.88;5096171;28;20040;-66
2024/02/20 05:58:34;;;;;;;16.73;9.30;;;;;;;8.36;99.17;100635.97;5098035;28;20447;-67
2024/02/20 06:01:00;;;;;;;16.77;10.23;;;;;;;8.48;98.50;100645.53;5097640;28;20032;-66
2024/02/20 06:03:25;;;;;;;17.08;9.77;;;;;;;8.59;97.67;100645.47;5098603;28;20043;-67
2024/02/20 06:05:51;;;;;;;23.10;13.82;;;;;;;8.56;97.15;100642.25;5097988;28;20047;-67
2024/02/20 06:08:16;;;;;;;31.40;16.73;;;;;;;8.55;97.09;100645.84;5098424;28;20028;-67
2024/02/20 06:10:42;;;;;;;28.65;16.48;;;;;;;8.47;98.70;100650.94;5098349;28;20353;-67
2024/02/20 06:13:07;;;;;;;23.73;13.50;;;;;;;8.52;99.00;100644.31;5097401;28;20031;-67
2024/02/20 06:15:33;;;;;;;21.73;12.52;;;;;;;8.34;100.00;100645.81;5097711;28;20039;-67
2024/02/20 06:17:58;;;;;;;22.35;12.45;;;;;;;8.45;100.00;100647.59;5094978;28;20077;-68
2024/02/20 06:20:23;;;;;;;20.92;12.15;;;;;;;8.64;99.45;100648.56;5096195;28;20093;-67
2024/02/20 06:22:49;;;;;;;19.35;11.05;;;;;;;8.75;98.78;100649.47;5094575;28;20046;-67
2024/02/20 06:25:15;;;;;;;16.77;9.98;;;;;;;8.90;97.67;100650.84;5096101;28;20028;-67
2024/02/20 06:27:44;;;;;;;17.80;11.55;;;;;;;8.80;98.03;100649.94;5094380;28;20688;-67
2024/02/20 06:30:12;;;;;;;16.88;10.45;;;;;;;8.61;97.58;100646.19;5096066;28;20098;-67
2024/02/20 06:32:39;;;;;;;21.50;12.50;;;;;;;8.30;99.68;100655.72;5093521;28;20039;-67
2024/02/20 06:35:05;;;;;;;20.40;11.77;;;;;;;8.25;100.00;100644.72;5095478;28;20031;-67
2024/02/20 06:37:31;;;;;;;23.83;12.07;;;;;;;8.14;100.00;100657.09;5094127;28;20047;-67
2024/02/20 06:39:58;;;;;;;19.80;11.45;;;;;;;8.09;100.00;100652.19;5096190;28;20123;-67
2024/02/20 06:42:24;;;;;;;16.85;10.00;;;;;;;8.02;100.00;100653.66;5095309;28;20349;-68
2024/02/20 06:44:49;;;;;;;16.02;9.63;;;;;;;7.78;100.00;100659.09;5095885;28;20024;-67
2024/02/20 06:47:15;;;;;;;16.13;9.27;;;;;;;7.78;100.00;100666.16;5096494;28;20225;-67
2024/02/20 06:49:40;;;;;;;15.30;7.82;;;;;;;7.66;100.00;100660.06;5095421;28;20040;-66
2024/02/20 06:52:06;;;;;;;13.88;8.30;;;;;;;7.27;100.00;100667.47;5095252;28;20457;-67
2024/02/20 06:54:32;;;;;;;15.18;9.00;;;;;;;7.32;100.00;100672.41;5091913;28;20320;-66
2024/02/20 06:56:58;;;;;;;16.35;9.57;;;;;;;7.21;100.00;100672.34;5091267;28;20043;-67
2024/02/20 06:59:24;;;;;;;15.02;9.30;;;;;;;7.08;100.00;100674.25;5094747;28;20348;-66
2024/02/20 07:01:51;;;;;;;13.73;8.73;;;;;;;7.23;100.00;100673.09;5093922;28;20038;-66
2024/02/20 07:04:17;;;;;;;13.50;8.95;;;;;;;7.42;100.00;100664.63;5095228;28;20036;-67
2024/02/20 07:06:42;;;;;;;16.15;9.73;;;;;;;7.33;100.00;100676.72;5094136;28;20202;-66
2024/02/20 07:09:08;;;;;;;15.88;10.15;;;;;;;7.51;100.00;100680.56;5094527;28;20055;-66
2024/02/20 07:11:34;;;;;;;17.00;10.32;;;;;;;7.64;100.00;100672.53;5095414;28;20032;-66
2024/02/20 07:13:59;;;;;;;15.73;9.68;;;;;;;7.88;100.00;100669.75;5092696;28;20039;-67
2024/02/20 07:16:25;;;;;;;13.82;8.85;;;;;;;8.06;100.00;100672.72;5093928;28;20058;-66
2024/02/20 07:18:50;;;;;;;13.45;7.72;;;;;;;7.77;100.00;100675.03;5093316;28;20221;-67
2024/02/20 07:21:15;;;;;;;12.70;7.57;;;;;;;7.65;100.00;100675.03;5093781;28;20370;-66
2024/02/20 07:23:41;;;;;;;14.80;8.95;;;;;;;7.76;100.00;100676.00;5091516;28;20043;-66
2024/02/20 07:26:07;;;;;;;15.00;8.73;;;;;;;7.84;100.00;100679.69;5094715;28;20043;-66
2024/02/20 07:28:32;;;;;;;14.13;7.68;;;;;;;7.81;100.00;100672.03;5093847;28;20364;-67
2024/02/20 07:30:58;;;;;;;14.48;8.23;;;;;;;7.70;100.00;100661.50;5096721;28;20221;-66
2024/02/20 07:33:23;;;;;;;19.02;10.55;;;;;;;7.64;100.00;100669.88;5097753;28;20035;-67
2024/02/20 07:35:49;;;;;;;20.67;11.55;;;;;;;7.36;100.00;100664.16;5097517;28;20034;-67
2024/02/20 07:38:15;;;;;;;20.05;11.63;;;;;;;7.24;100.00;100674.75;5098582;28;20032;-67
2024/02/20 07:40:40;;;;;;;16.73;9.50;;;;;;;7.27;100.00;100671.88;5098086;28;20027;-67
2024/02/20 07:43:06;;;;;;;14.88;9.10;;;;;;;7.38;100.00;100673.72;5098343;28;20036;-67
2024/02/20 07:45:31;;;;;;;16.35;10.77;;;;;;;7.49;100.00;100671.09;5094620;28;20149;-66
2024/02/20 07:47:57;;;;;;;20.73;11.57;;;;;;;7.55;100.00;100662.72;5098170;28;20044;-67
2024/02/20 07:50:22;;;;;;;22.40;10.00;;;;;;;7.46;100.00;100671.34;5096685;28;20036;-67
2024/02/20 07:52:48;;;;;;;21.30;11.18;;;;;;;7.52;100.00;100671.69;5098658;28;20040;-67
2024/02/20 07:55:13;;;;;;;17.67;10.70;;;;;;;7.62;100.00;100666.53;5097296;28;20324;-67
2024/02/20 07:57:39;;;;;;;19.75;11.52;;;;;;;7.75;100.00;100664.59;5097818;28;20326;-67
2024/02/20 08:00:05;;;;;;;18.55;10.50;;;;;;;7.71;100.00;100668.44;5096766;28;20069;-67
2024/02/20 08:02:31;;;;;;;16.33;9.60;;;;;;;7.64;100.00;100670.72;5097541;28;20032;-67
2024/02/20 08:04:57;;;;;;;18.73;10.27;;;;;;;7.53;100.00;100668.09;5098355;28;20034;-66
2024/02/20 08:07:22;;;;;;;21.58;11.35;;;;;;;7.60;100.00;100665.81;5098008;28;20214;-67
2024/02/20 08:09:48;;;;;;;18.20;11.45;;;;;;;7.81;100.00;100665.91;5098344;28;20062;-67
2024/02/20 08:12:14;;;;;;;16.15;10.27;;;;;;;8.07;100.00;100669.94;5098216;28;20108;-67
2024/02/20 08:14:40;;;;;;;18.02;11.60;;;;;;;8.15;100.00;100670.16;5098062;28;20067;-67
2024/02/20 08:17:06;;;;;;;17.85;10.98;;;;;;;8.22;100.00;100679.25;5097345;28;20040;-66
2024/02/20 08:19:32;;;;;;;18.40;10.43;;;;;;;8.15;100.00;100672.81;5097910;28;20031;-67
2024/02/20 08:21:58;;;;;;;18.50;10.32;;;;;;;8.08;100.00;100670.78;5097735;28;20181;-66
2024/02/20 08:24:23;;;;;;;16.42;10.07;;;;;;;7.99;100.00;100675.84;5098230;28;20348;-66
2024/02/20 08:26:49;;;;;;;19.40;10.65;;;;;;;7.94;100.00;100674.53;5096555;28;20039;-67
2024/02/20 08:29:15;;;;;;;18.65;9.38;;;;;;;7.76;100.00;100673.34;5098206;28;20323;-66
2024/02/20 08:31:43;;;;;;;16.52;10.48;;;;;;;7.68;100.00;100677.44;5096910;28;20027;-66
2024/02/20 08:34:09;;;;;;;16.52;10.48;;;;;;;7.64;100.00;100681.28;5098090;28;20036;-67
2024/02/20 08:36:37;;;;;;;19.00;9.60;;;;;;;7.67;100.00;100675.75;5097450;28;20216;-66
2024/02/20 08:39:04;;;;;;;18.20;10.50;;;;;;;7.54;100.00;100682.94;5098358;28;20046;-67
2024/02/20 08:41:29;;;;;;;17.15;9.45;;;;;;;7.41;100.00;100682.22;5097092;28;20044;-67
2024/02/20 08:43:55;;;;;;;17.17;9.80;;;;;;;7.51;100.00;100683.19;5098471;28;20096;-67
2024/02/20 08:46:21;;;;;;;19.08;10.75;;;;;;;7.57;100.00;100684.50;5097084;28;20036;-67
2024/02/20 08:48:47;;;;;;;13.98;9.18;;;;;;;7.70;100.00;100677.31;5097335;28;20040;-67
2024/02/20 08:51:14;;;;;;;18.88;10.02;;;;;;;7.64;100.00;100691.81;5096599;28;20039;-67
2024/02/20 08:53:39;;;;;;;16.08;8.70;;;;;;;7.75;100.00;100677.78;5097457;28;20158;-67
2024/02/20 08:56:06;;;;;;;16.70;10.02;;;;;;;7.61;100.00;100686.78;5096943;28;20248;-67
2024/02/20 08:58:31;;;;;;;14.45;9.05;;;;;;;7.66;100.00;100681.16;5097228;28;20036;-67
2024/02/20 09:00:57;;;;;;;19.08;10.05;;;;;;;7.67;100.00;100693.38;5097390;28;20336;-67
2024/02/20 09:03:27;;;;;;;16.65;10.70;;;;;;;7.79;100.00;100691.56;5096615;28;20035;-67
2024/02/20 09:05:52;;;;;;;16.75;10.73;;;;;;;8.02;100.00;100691.41;5097659;28;20028;-67
2024/02/20 09:08:18;;;;;;;19.40;11.27;;;;;;;8.21;100.00;100692.56;5096165;28;20043;-66
2024/02/20 09:10:43;;;;;;;17.80;10.30;;;;;;;8.57;100.00;100691.44;5097359;28;20038;-66
2024/02/20 09:13:09;;;;;;;17.35;10.93;;;;;;;8.75;100.00;100697.00;5096237;28;20032;-67
2024/02/20 09:15:35;;;;;;;23.83;11.68;;;;;;;8.98;100.00;100695.09;5097720;28;20062;-67
2024/02/20 09:18:01;;;;;;;21.42;11.35;;;;;;;9.14;100.00;100696.31;5096425;28;20253;-67
2024/02/20 09:20:26;;;;;;;25.35;14.85;;;;;;;9.26;100.00;100705.00;5096127;28;20859;-68
2024/02/20 09:22:52;;;;;;;26.63;15.73;;;;;;;9.32;100.00;100696.56;5096454;28;20076;-67
2024/02/20 09:25:18;;;;;;;22.25;12.32;;;;;;;9.30;100.00;100695.84;5096118;28;20237;-67
2024/02/20 09:27:43;;;;;;;24.00;14.32;;;;;;;9.25;100.00;100692.75;5095467;28;20068;-67
2024/02/20 09:30:10;;;;;;;26.55;15.43;;;;;;;9.20;100.00;100694.97;5096262;28;20061;-67
2024/02/20 09:32:37;;;;;;;22.02;13.98;;;;;;;9.38;100.00;100700.50;5096370;28;20028;-67
2024/02/20 09:35:03;;;;;;;22.10;12.55;;;;;;;9.56;100.00;100698.94;5095763;28;20332;-67
2024/02/20 09:37:29;;;;;;;20.58;12.10;;;;;;;9.69;100.00;100698.72;5096528;28;20130;-66
2024/02/20 09:39:54;;;;;;;22.60;12.43;;;;;;;9.70;99.38;100697.75;5095325;28;20055;-67
2024/02/20 09:42:24;;;;;;;20.48;11.52;;;;;;;9.56;100.00;100697.13;5097074;28;20101;-67
2024/02/20 09:44:57;;;;;;;20.10;12.90;;;;;;;9.53;100.00;100696.56;5094871;28;20044;-67
2024/02/20 09:47:22;;;;;;;19.98;11.77;;;;;;;9.51;100.00;100686.13;5096485;28;20043;-67
2024/02/20 09:49:50;;;;;;;19.35;12.98;;;;;;;9.40;100.00;100696.78;5094676;28;21178;-67
2024/02/20 09:52:18;;;;;;;25.13;13.95;;;;;;;9.18;100.00;100687.16;5094615;28;20027;-67
2024/02/20 09:54:44;;;;;;;23.20;14.05;;;;;;;9.21;100.00;100688.69;5095645;28;20035;-67
2024/02/20 09:57:10;;;;;;;24.70;14.90;;;;;;;9.25;100.00;100679.53;5096520;28;20057;-67
2024/02/20 09:59:35;;;;;;;25.83;15.48;;;;;;;9.21;100.00;100676.31;5096171;28;20051;-67
2024/02/20 10:02:02;;;;;;;29.70;16.17;;;;;;;8.88;100.00;100679.19;5095991;28;20065;-67
2024/02/20 10:04:33;;;;;;;23.60;12.60;;;;;;;8.93;100.00;100677.00;5096798;28;20063;-66
2024/02/20 10:07:03;;;;;;;20.02;12.43;;;;;;;8.82;100.00;100672.59;5097183;28;20036;-67
2024/02/20 10:09:33;;;;;;;19.77;12.18;;;;;;;8.71;100.00;100666.53;5097774;28;20036;-67
2024/02/20 10:11:59;;;;;;;23.33;11.85;;;;;;;8.79;100.00;100662.28;5096411;28;20032;-67
2024/02/20 10:14:28;;;;;;;15.88;8.40;;;;;;;8.70;100.00;100659.59;5097328;28;20040;-67
2024/02/20 10:17:03;;;;;;;16.17;9.65;;;;;;;8.63;100.00;100657.47;5095141;28;20071;-68
2024/02/20 10:19:29;;;;;;;15.50;9.35;;;;;;;8.47;100.00;100654.41;5095768;28;20040;-67
2024/02/20 10:21:54;;;;;;;17.27;9.82;;;;;;;8.56;100.00;100650.19;5088392;28;20059;-67
2024/02/20 10:24:20;;;;;;;20.50;11.63;;;;;;;8.58;100.00;100649.09;5088354;28;20329;-67
2024/02/20 10:26:46;;;;;;;19.38;10.55;;;;;;;8.63;100.00;100646.06;5093751;28;20555;-67
2024/02/20 10:29:13;;;;;;;21.30;10.80;;;;;;;8.62;100.00;100644.38;5094759;28;20243;-67
2024/02/20 10:31:39;;;;;;;20.67;12.27;;;;;;;8.71;100.00;100643.63;5094823;28;20024;-67
2024/02/20 10:34:05;;;;;;;26.25;14.07;;;;;;;8.68;100.00;100640.41;5094986;28;20036;-67
2024/02/20 10:36:31;;;;;;;22.80;12.73;;;;;;;8.70;100.00;100643.75;5096139;28;20083;-67
2024/02/20 10:39:10;;;;;;;23.92;14.13;;;;;;;8.63;100.00;100631.06;5096031;28;20036;-67
2024/02/20 10:41:36;;;;;;;23.17;12.73;;;;;;;8.85;100.00;100619.53;5096983;28;20036;-67
2024/02/20 10:44:02;;;;;;;19.77;12.10;;;;;;;8.78;100.00;100621.00;5095352;28;20249;-67
2024/02/20 10:46:32;;;;;;;19.75;12.18;;;;;;;8.82;100.00;100617.16;5096015;28;20035;-67
2024/02/20 10:49:02;;;;;;;16.33;10.20;;;;;;;8.72;100.00;100628.59;5096482;28;20086;-66
2024/02/20 10:51:28;;;;;;;18.90;10.50;;;;;;;8.72;100.00;100613.59;5096021;28;20044;-66
2024/02/20 10:53:58;;;;;;;20.25;11.88;;;;;;;9.02;100.00;100614.63;5097198;28;20032;-67
2024/02/20 10:56:26;;;;;;;19.65;11.43;;;;;;;9.06;100.00;100610.75;5095075;28;20048;-67
2024/02/20 10:58:53;;;;;;;23.48;13.05;;;;;;;9.31;100.00;100612.13;5096576;28;20047;-67
2024/02/20 11:01:18;;;;;;;20.88;11.00;;;;;;;9.39;100.00;100602.56;5095961;28;20035;-67
2024/02/20 11:03:47;;;;;;;23.77;11.98;;;;;;;9.27;100.00;100591.25;5097780;28;20120;-67
2024/02/20 11:06:13;;;;;;;20.98;11.90;;;;;;;9.49;100.00;100586.75;5099356;28;20032;-67